CMA CGM Butterfly — A8NO8 — position and weather

sailwx.info

Track history (hours):
 
Tides and Currents Weather Stations Pressure Air Temp Water Temp Dewpoint Dewpoint Depression Visibility Wind Speed Wind Dir Waves Ship Positions

CMA CGM Butterfly

Last reported at 2014-Jul-25 15:33 UTC. Time now 2014-Jul-25 16:03 UTC.
Position N 35°49' E 014°32'.

Length 350 m; draft 11.6 m.

Type: Ship (hazmat cat A). MMSI: 636091420.

Date/timePositionNaut miles runAvg speedWind from/ knotsBaromVisibWave heightAir tempDewpointWater temp
2014-Jul-25 15:33N 35°49' E 014°32'0 0.0
2014-Jul-25 14:33N 35°49' E 014°32'0 0.0
2014-Jul-25 13:33N 35°49' E 014°32'0 0.0
2014-Jul-25 12:15N 35°49' E 014°32'0 0.0
2014-Jul-25 11:33N 35°49' E 014°32'0 0.0
2014-Jul-25 10:27N 35°49' E 014°32'0 0.0
2014-Jul-25 09:33N 35°49' E 014°32'0 0.0
2014-Jul-25 08:33N 35°49' E 014°32'0 0.0
2014-Jul-25 07:33N 35°49' E 014°32'0 0.0
2014-Jul-25 06:27N 35°49' E 014°32'0 0.0
2014-Jul-25 05:30N 35°49' E 014°32'0 0.0
2014-Jul-25 03:24N 35°49' E 014°32'0 0.0
2014-Jul-25 02:30N 35°49' E 014°32'0 0.0
2014-Jul-25 01:33N 35°49' E 014°32'0 0.0
2014-Jul-25 00:33N 35°49' E 014°32'0 0.0
2014-Jul-24 23:33N 35°49' E 014°32'0 0.0
2014-Jul-24 22:33N 35°49' E 014°32'0 0.0
2014-Jul-24 21:33N 35°49' E 014°32'0 0.0
2014-Jul-24 20:33N 35°49' E 014°32'0 0.0
2014-Jul-24 19:30N 35°49' E 014°32'0 0.0
2014-Jul-24 18:30N 35°49' E 014°32'0 0.0
2014-Jul-24 17:33N 35°49' E 014°32'0 0.0
2014-Jul-24 16:30N 35°49' E 014°32'0 0.0
2014-Jul-24 15:33N 35°49' E 014°32'0 0.4
2014-Jul-24 14:33N 35°49' E 014°33'4 3.9
2014-Jul-24 13:33N 35°45' E 014°34'1513.5
2014-Jul-24 12:29N 35°48' E 014°16'1314.6
2014-Jul-24 11:33N 35°56' E 014°03'1414.2
2014-Jul-24 10:33N 36°04' E 013°48'1414.2
2014-Jul-24 09:33N 36°11' E 013°33'1714.8
2014-Jul-24 08:23N 36°20' E 013°14'911.0
2014-Jul-24 07:33N 36°25' E 013°05'33513.9
2014-Jul-23 07:31N 37°12' E 006°10'1414.6
2014-Jul-23 06:33N 37°11' E 005°52'4815.3
2014-Jul-23 03:26N 37°09' E 004°53'1315.4
2014-Jul-23 02:34N 37°08' E 004°36'1615.6
2014-Jul-23 01:33N 37°08' E 004°16'1515.2
2014-Jul-23 00:33N 37°07' E 003°57'1615.9
2014-Jul-22 23:33N 37°04' E 003°37'1615.6
2014-Jul-22 22:33N 37°02' E 003°18'1616.2
2014-Jul-22 21:33N 36°59' E 002°58'1615.9
2014-Jul-22 20:33N 36°57' E 002°39'1615.6
2014-Jul-22 19:34N 36°54' E 002°19'1515.4
2014-Jul-22 18:33N 36°52' E 002°00'1515.5
2014-Jul-22 17:33N 36°49' E 001°41'1515.1
2014-Jul-22 16:33N 36°47' E 001°22'1515.0
2014-Jul-22 15:34N 36°45' E 001°04'1616.0
2014-Jul-22 14:33N 36°42' E 000°44'1818.0
2014-Jul-22 13:33N 36°39' E 000°22'1818.3
2014-Jul-22 12:33N 36°36' W 000°00'1817.9
2014-Jul-22 11:33N 36°34' W 000°23'1818.1
2014-Jul-22 10:33N 36°32' W 000°45'1818.2
2014-Jul-22 09:33N 36°28' W 001°07'1818.4
2014-Jul-22 08:33N 36°25' W 001°30'1717.1
2014-Jul-22 07:33N 36°22' W 001°51'1615.6
2014-Jul-22 06:34N 36°20' W 002°10'1515.2
2014-Jul-22 05:33N 36°18' W 002°29'13916.7
2014-Jul-21 21:15N 35°59' W 005°19'8 0.4
2014-Jul-21 00:23N 35°57' W 005°28'9 7.7
2014-Jul-20 23:13N 36°02' W 005°18'  
2014-Jul-18 00:26N 37°10' W 001°07'3417.5
2014-Jul-17 22:31N 37°33' W 000°36'1617.1
2014-Jul-17 21:34N 37°45' W 000°22'8416.7
2014-Jul-17 16:33N 38°47' E 000°49'1716.0
2014-Jul-17 15:31N 38°59' E 001°04'1616.7
2014-Jul-17 14:32N 39°10' E 001°20'1616.5
2014-Jul-17 13:33N 39°20' E 001°36'1616.4
2014-Jul-17 12:33N 39°31' E 001°52'1816.5
2014-Jul-17 11:29N 39°42' E 002°10'1616.6
2014-Jul-17 10:33N 39°52' E 002°25'1716.7
2014-Jul-17 09:33N 40°02' E 002°43'1616.4
2014-Jul-17 08:33N 40°12' E 002°60'1616.5
2014-Jul-17 07:34N 40°21' E 003°17'1616.3
2014-Jul-17 06:34N 40°31' E 003°34'1716.6
2014-Jul-17 05:33N 40°41' E 003°52'1818.0
2014-Jul-17 04:33N 40°52' E 004°11'1616.6
2014-Jul-17 03:33N 41°02' E 004°28'1717.1
2014-Jul-17 02:32N 41°12' E 004°47'1716.5
2014-Jul-17 01:32N 41°22' E 005°05'1515.9
2014-Jul-17 00:33N 41°31' E 005°21'1716.8
2014-Jul-16 23:34N 41°42' E 005°39'1716.7
2014-Jul-16 22:33N 41°52' E 005°57'1716.8
2014-Jul-16 21:33N 42°02' E 006°15'1716.9
2014-Jul-16 20:33N 42°12' E 006°33'1716.7
2014-Jul-16 19:33N 42°22' E 006°51'1716.6
2014-Jul-16 18:33N 42°32' E 007°09'1716.6
2014-Jul-16 17:33N 42°42' E 007°27'1616.3
2014-Jul-16 16:34N 42°52' E 007°45'1616.5
2014-Jul-16 15:34N 43°01' E 008°03'1716.8
2014-Jul-16 14:33N 43°12' E 008°21'1717.0
2014-Jul-16 13:33N 43°22' E 008°40'1716.9
2014-Jul-16 12:33N 43°32' E 008°59'1717.2
2014-Jul-16 11:33N 43°43' E 009°17'1717.4
2014-Jul-16 10:33N 43°53' E 009°36'1514.8
2014-Jul-16 09:33N 44°03' E 009°52'4 3.5
2014-Jul-16 08:31N 44°06' E 009°51'0 0.0
2014-Jul-16 07:31N 44°06' E 009°51'0 0.0
2014-Jul-16 06:31N 44°06' E 009°51'0 0.0
2014-Jul-16 05:31N 44°06' E 009°51'0 0.0
2014-Jul-16 04:31N 44°06' E 009°51'0 0.0
2014-Jul-16 03:31N 44°06' E 009°51'0 0.0
2014-Jul-16 02:31N 44°06' E 009°51'0 0.0
2014-Jul-16 01:31N 44°06' E 009°51'0 0.0
2014-Jul-16 00:31N 44°06' E 009°51'0 0.0
2014-Jul-15 23:31N 44°06' E 009°51'0 0.0
2014-Jul-15 22:31N 44°06' E 009°51'0 0.0
2014-Jul-15 21:31N 44°06' E 009°51'0 0.0
2014-Jul-15 20:31N 44°06' E 009°51'0 0.0
2014-Jul-15 19:31N 44°06' E 009°51'0 0.0
2014-Jul-15 18:31N 44°06' E 009°51'0 0.0
2014-Jul-15 17:31N 44°06' E 009°51'0 0.0
2014-Jul-15 16:31N 44°06' E 009°51'  
Track history (hours):
 
Tides and Currents Weather Stations Pressure Air Temp Water Temp Dewpoint Dewpoint Depression Visibility Wind Speed Wind Dir Waves Ship Positions

CMA CGM Butterfly

Last reported at 2014-Jul-25 15:33 UTC. Time now 2014-Jul-25 16:03 UTC.
Position N 35°49' E 014°32'.

Length 350 m; draft 11.6 m.

Type: Ship (hazmat cat A). MMSI: 636091420.

Date/timePositionNaut miles runAvg speedWind from/ knotsBaromVisibWave heightAir tempDewpointWater temp
2014-Jul-25 15:33N 35°49' E 014°32'0 0.0
2014-Jul-25 14:33N 35°49' E 014°32'0 0.0
2014-Jul-25 13:33N 35°49' E 014°32'0 0.0
2014-Jul-25 12:15N 35°49' E 014°32'0 0.0
2014-Jul-25 11:33N 35°49' E 014°32'0 0.0
2014-Jul-25 10:27N 35°49' E 014°32'0 0.0
2014-Jul-25 09:33N 35°49' E 014°32'0 0.0
2014-Jul-25 08:33N 35°49' E 014°32'0 0.0
2014-Jul-25 07:33N 35°49' E 014°32'0 0.0
2014-Jul-25 06:27N 35°49' E 014°32'0 0.0
2014-Jul-25 05:30N 35°49' E 014°32'0 0.0
2014-Jul-25 03:24N 35°49' E 014°32'0 0.0
2014-Jul-25 02:30N 35°49' E 014°32'0 0.0
2014-Jul-25 01:33N 35°49' E 014°32'0 0.0
2014-Jul-25 00:33N 35°49' E 014°32'0 0.0
2014-Jul-24 23:33N 35°49' E 014°32'0 0.0
2014-Jul-24 22:33N 35°49' E 014°32'0 0.0
2014-Jul-24 21:33N 35°49' E 014°32'0 0.0
2014-Jul-24 20:33N 35°49' E 014°32'0 0.0
2014-Jul-24 19:30N 35°49' E 014°32'0 0.0
2014-Jul-24 18:30N 35°49' E 014°32'0 0.0
2014-Jul-24 17:33N 35°49' E 014°32'0 0.0
2014-Jul-24 16:30N 35°49' E 014°32'0 0.0
2014-Jul-24 15:33N 35°49' E 014°32'0 0.4
2014-Jul-24 14:33N 35°49' E 014°33'4 3.9
2014-Jul-24 13:33N 35°45' E 014°34'1513.5
2014-Jul-24 12:29N 35°48' E 014°16'1314.6
2014-Jul-24 11:33N 35°56' E 014°03'1414.2
2014-Jul-24 10:33N 36°04' E 013°48'1414.2
2014-Jul-24 09:33N 36°11' E 013°33'1714.8
2014-Jul-24 08:23N 36°20' E 013°14'911.0
2014-Jul-24 07:33N 36°25' E 013°05'33513.9
2014-Jul-23 07:31N 37°12' E 006°10'1414.6
2014-Jul-23 06:33N 37°11' E 005°52'4815.3
2014-Jul-23 03:26N 37°09' E 004°53'1315.4
2014-Jul-23 02:34N 37°08' E 004°36'1615.6
2014-Jul-23 01:33N 37°08' E 004°16'1515.2
2014-Jul-23 00:33N 37°07' E 003°57'1615.9
2014-Jul-22 23:33N 37°04' E 003°37'1615.6
2014-Jul-22 22:33N 37°02' E 003°18'1616.2
2014-Jul-22 21:33N 36°59' E 002°58'1615.9
2014-Jul-22 20:33N 36°57' E 002°39'1615.6
2014-Jul-22 19:34N 36°54' E 002°19'1515.4
2014-Jul-22 18:33N 36°52' E 002°00'1515.5
2014-Jul-22 17:33N 36°49' E 001°41'1515.1
2014-Jul-22 16:33N 36°47' E 001°22'1515.0
2014-Jul-22 15:34N 36°45' E 001°04'1616.0
2014-Jul-22 14:33N 36°42' E 000°44'1818.0
2014-Jul-22 13:33N 36°39' E 000°22'1818.3
2014-Jul-22 12:33N 36°36' W 000°00'1817.9
2014-Jul-22 11:33N 36°34' W 000°23'1818.1
2014-Jul-22 10:33N 36°32' W 000°45'1818.2
2014-Jul-22 09:33N 36°28' W 001°07'1818.4
2014-Jul-22 08:33N 36°25' W 001°30'1717.1
2014-Jul-22 07:33N 36°22' W 001°51'1615.6
2014-Jul-22 06:34N 36°20' W 002°10'1515.2
2014-Jul-22 05:33N 36°18' W 002°29'13916.7
2014-Jul-21 21:15N 35°59' W 005°19'8 0.4
2014-Jul-21 00:23N 35°57' W 005°28'9 7.7
2014-Jul-20 23:13N 36°02' W 005°18'  
2014-Jul-18 00:26N 37°10' W 001°07'3417.5
2014-Jul-17 22:31N 37°33' W 000°36'1617.1
2014-Jul-17 21:34N 37°45' W 000°22'8416.7
2014-Jul-17 16:33N 38°47' E 000°49'1716.0
2014-Jul-17 15:31N 38°59' E 001°04'1616.7
2014-Jul-17 14:32N 39°10' E 001°20'1616.5
2014-Jul-17 13:33N 39°20' E 001°36'1616.4
2014-Jul-17 12:33N 39°31' E 001°52'1816.5
2014-Jul-17 11:29N 39°42' E 002°10'1616.6
2014-Jul-17 10:33N 39°52' E 002°25'1716.7
2014-Jul-17 09:33N 40°02' E 002°43'1616.4
2014-Jul-17 08:33N 40°12' E 002°60'1616.5
2014-Jul-17 07:34N 40°21' E 003°17'1616.3
2014-Jul-17 06:34N 40°31' E 003°34'1716.6
2014-Jul-17 05:33N 40°41' E 003°52'1818.0
2014-Jul-17 04:33N 40°52' E 004°11'1616.6
2014-Jul-17 03:33N 41°02' E 004°28'1717.1
2014-Jul-17 02:32N 41°12' E 004°47'1716.5
2014-Jul-17 01:32N 41°22' E 005°05'1515.9
2014-Jul-17 00:33N 41°31' E 005°21'1716.8
2014-Jul-16 23:34N 41°42' E 005°39'1716.7
2014-Jul-16 22:33N 41°52' E 005°57'1716.8
2014-Jul-16 21:33N 42°02' E 006°15'1716.9
2014-Jul-16 20:33N 42°12' E 006°33'1716.7
2014-Jul-16 19:33N 42°22' E 006°51'1716.6
2014-Jul-16 18:33N 42°32' E 007°09'1716.6
2014-Jul-16 17:33N 42°42' E 007°27'1616.3
2014-Jul-16 16:34N 42°52' E 007°45'1616.5
2014-Jul-16 15:34N 43°01' E 008°03'1716.8
2014-Jul-16 14:33N 43°12' E 008°21'1717.0
2014-Jul-16 13:33N 43°22' E 008°40'1716.9
2014-Jul-16 12:33N 43°32' E 008°59'1717.2
2014-Jul-16 11:33N 43°43' E 009°17'1717.4
2014-Jul-16 10:33N 43°53' E 009°36'1514.8
2014-Jul-16 09:33N 44°03' E 009°52'4 3.5
2014-Jul-16 08:31N 44°06' E 009°51'0 0.0
2014-Jul-16 07:31N 44°06' E 009°51'0 0.0
2014-Jul-16 06:31N 44°06' E 009°51'0 0.0
2014-Jul-16 05:31N 44°06' E 009°51'0 0.0
2014-Jul-16 04:31N 44°06' E 009°51'0 0.0
2014-Jul-16 03:31N 44°06' E 009°51'0 0.0
2014-Jul-16 02:31N 44°06' E 009°51'0 0.0
2014-Jul-16 01:31N 44°06' E 009°51'0 0.0
2014-Jul-16 00:31N 44°06' E 009°51'0 0.0
2014-Jul-15 23:31N 44°06' E 009°51'0 0.0
2014-Jul-15 22:31N 44°06' E 009°51'0 0.0
2014-Jul-15 21:31N 44°06' E 009°51'0 0.0
2014-Jul-15 20:31N 44°06' E 009°51'0 0.0
2014-Jul-15 19:31N 44°06' E 009°51'0 0.0
2014-Jul-15 18:31N 44°06' E 009°51'0 0.0
2014-Jul-15 17:31N 44°06' E 009°51'0 0.0
2014-Jul-15 16:31N 44°06' E 009°51'  

Dump ship's entire track history